createdAt,value
2022-10-07T00:00:51.724Z,101632.09
2022-10-07T00:03:19.984Z,101630.56
2022-10-07T00:05:47.529Z,101630.19
2022-10-07T00:08:15.586Z,101631.34
2022-10-07T00:10:43.739Z,101626.72
2022-10-07T00:13:12.347Z,101624.91
2022-10-07T00:15:40.050Z,101616.50
2022-10-07T00:18:08.389Z,101627.81
2022-10-07T00:20:39.552Z,101628.50
2022-10-07T00:23:08.349Z,101627.31
2022-10-07T00:25:36.876Z,101623.31
2022-10-07T00:28:05.103Z,101626.66
2022-10-07T00:30:33.059Z,101622.22
2022-10-07T00:33:00.617Z,101624.41
2022-10-07T00:35:28.038Z,101625.59
2022-10-07T00:37:56.268Z,101625.88
2022-10-07T00:40:25.701Z,101629.53
2022-10-07T00:42:53.309Z,101626.81
2022-10-07T00:45:21.967Z,101623.50
2022-10-07T00:47:51.241Z,101620.13
2022-10-07T00:50:20.001Z,101616.53
2022-10-07T00:52:49.294Z,101625.16
2022-10-07T00:55:17.796Z,101614.59
2022-10-07T00:57:45.584Z,101619.94
2022-10-07T01:00:13.605Z,101613.16
2022-10-07T01:02:42.206Z,101620.06
2022-10-07T01:05:09.900Z,101622.84
2022-10-07T01:07:39.272Z,101626.75
2022-10-07T01:10:07.451Z,101622.25
2022-10-07T01:12:44.561Z,101630.75
2022-10-07T01:15:15.042Z,101641.47
2022-10-07T01:17:53.771Z,101638.38
2022-10-07T01:20:27.321Z,101643.50
2022-10-07T01:22:59.517Z,101635.59
2022-10-07T01:25:35.067Z,101634.53
2022-10-07T01:28:04.992Z,101638.72
2022-10-07T01:30:32.402Z,101638.13
2022-10-07T01:33:03.074Z,101639.50
2022-10-07T01:35:35.241Z,101642.97
2022-10-07T01:38:20.432Z,101645.41
2022-10-07T01:40:48.957Z,101645.44
2022-10-07T01:43:17.931Z,101641.75
2022-10-07T01:45:45.289Z,101644.47
2022-10-07T01:48:12.770Z,101644.69
2022-10-07T01:50:40.239Z,101653.28
2022-10-07T01:53:26.912Z,101647.38
2022-10-07T01:56:10.672Z,101650.03
2022-10-07T01:58:44.724Z,101654.38
2022-10-07T02:01:23.035Z,101655.22
2022-10-07T02:04:00.047Z,101656.56
2022-10-07T02:06:40.393Z,101654.50
2022-10-07T02:09:21.260Z,101658.13
2022-10-07T02:11:49.397Z,101648.69
2022-10-07T02:14:18.917Z,101656.06
2022-10-07T02:16:47.253Z,101662.00
2022-10-07T02:19:18.209Z,101647.38
2022-10-07T02:21:46.050Z,101649.53
2022-10-07T02:24:13.354Z,101658.13
2022-10-07T02:26:42.652Z,101656.44
2022-10-07T02:29:10.757Z,101666.13
2022-10-07T02:31:41.798Z,101659.69
2022-10-07T02:34:13.306Z,101660.91
2022-10-07T02:36:45.263Z,101664.78
2022-10-07T02:39:13.161Z,101666.00
2022-10-07T02:41:53.113Z,101678.09
2022-10-07T02:44:34.427Z,101669.50
2022-10-07T02:47:07.139Z,101678.09
2022-10-07T02:49:39.813Z,101676.38
2022-10-07T02:52:25.535Z,101674.34
2022-10-07T02:54:54.598Z,101672.41
2022-10-07T02:57:22.128Z,101674.69
2022-10-07T02:59:49.623Z,101675.94
2022-10-07T03:02:24.334Z,101681.81
2022-10-07T03:04:52.365Z,101673.13
2022-10-07T03:07:21.012Z,101675.31
2022-10-07T03:09:49.309Z,101676.03
2022-10-07T03:12:16.849Z,101677.59
2022-10-07T03:14:45.070Z,101683.66
2022-10-07T03:17:14.438Z,101675.78
2022-10-07T03:19:43.089Z,101687.53
2022-10-07T03:22:11.132Z,101680.28
2022-10-07T03:24:42.798Z,101676.03
2022-10-07T03:27:10.962Z,101681.22
2022-10-07T03:29:39.927Z,101678.81
2022-10-07T03:32:08.396Z,101692.97
2022-10-07T03:34:38.030Z,101684.00
2022-10-07T03:37:05.783Z,101695.06
2022-10-07T03:39:34.332Z,101700.81
2022-10-07T03:42:02.418Z,101703.75
2022-10-07T03:44:30.296Z,101709.28
2022-10-07T03:46:58.966Z,101704.66
2022-10-07T03:49:27.413Z,101704.47
2022-10-07T03:51:55.501Z,101702.03
2022-10-07T03:54:22.957Z,101702.94
2022-10-07T03:56:51.975Z,101706.03
2022-10-07T03:59:19.595Z,101711.84
2022-10-07T04:01:47.919Z,101707.22
2022-10-07T04:04:15.689Z,101709.09
2022-10-07T04:06:44.324Z,101699.66
2022-10-07T04:09:16.373Z,101693.81
2022-10-07T04:11:44.756Z,101705.59
2022-10-07T04:14:13.706Z,101703.91
2022-10-07T04:16:43.378Z,101705.06
2022-10-07T04:19:13.905Z,101703.63
2022-10-07T04:21:44.538Z,101711.47
2022-10-07T04:24:12.923Z,101720.63
2022-10-07T04:26:40.493Z,101713.41
2022-10-07T04:29:08.369Z,101719.22
2022-10-07T04:31:37.589Z,101717.03
2022-10-07T04:34:08.845Z,101725.06
2022-10-07T04:36:40.219Z,101724.13
2022-10-07T04:39:13.622Z,101721.88
2022-10-07T04:41:52.366Z,101727.81
2022-10-07T04:44:25.212Z,101730.31
2022-10-07T04:47:10.807Z,101732.47
2022-10-07T04:49:39.670Z,101731.44
2022-10-07T04:52:10.279Z,101733.38
2022-10-07T04:54:40.054Z,101738.41
2022-10-07T04:57:10.378Z,101728.94
2022-10-07T04:59:42.471Z,101746.38
2022-10-07T05:02:12.064Z,101738.28
2022-10-07T05:04:39.781Z,101736.94
2022-10-07T05:07:08.702Z,101736.34
2022-10-07T05:09:36.775Z,101736.56
2022-10-07T05:12:05.551Z,101736.44
2022-10-07T05:14:34.460Z,101738.66
2022-10-07T05:17:04.782Z,101735.25
2022-10-07T05:19:38.358Z,101752.31
2022-10-07T05:22:06.492Z,101746.13
2022-10-07T05:24:34.554Z,101748.44
2022-10-07T05:27:02.848Z,101747.09
2022-10-07T05:29:39.677Z,101748.50
2022-10-07T05:32:07.177Z,101751.78
2022-10-07T05:34:34.729Z,101766.47
2022-10-07T05:37:02.198Z,101767.94
2022-10-07T05:39:29.679Z,101757.56
2022-10-07T05:42:04.329Z,101769.19
2022-10-07T05:44:38.086Z,101775.25
2022-10-07T05:47:06.819Z,101781.22
2022-10-07T05:49:36.235Z,101762.75
2022-10-07T05:52:04.424Z,101776.06
2022-10-07T05:54:33.392Z,101777.44
2022-10-07T05:57:03.268Z,101782.94
2022-10-07T05:59:32.015Z,101801.97
2022-10-07T06:02:00.822Z,101801.00
2022-10-07T06:04:31.442Z,101804.31
2022-10-07T06:07:04.254Z,101797.97
2022-10-07T06:10:03.084Z,101810.91
2022-10-07T06:12:49.201Z,101817.91
2022-10-07T06:15:16.673Z,101810.81
2022-10-07T06:17:48.053Z,101808.78
2022-10-07T06:20:19.581Z,101822.59
2022-10-07T06:22:49.029Z,101819.06
2022-10-07T06:25:18.990Z,101818.25
2022-10-07T06:27:53.516Z,101822.47
2022-10-07T06:30:23.202Z,101823.53
2022-10-07T06:32:51.148Z,101828.22
2022-10-07T06:35:19.688Z,101820.72
2022-10-07T06:37:49.686Z,101819.44
2022-10-07T06:40:18.337Z,101827.16
2022-10-07T06:42:47.800Z,101828.00
2022-10-07T06:45:56.647Z,101826.69
2022-10-07T06:48:27.262Z,101823.28
2022-10-07T06:50:55.920Z,101817.03
2022-10-07T06:53:26.347Z,101824.72
2022-10-07T06:55:57.838Z,101814.38
2022-10-07T06:58:29.776Z,101811.31
2022-10-07T07:00:59.793Z,101814.59
2022-10-07T07:03:27.626Z,101821.09
2022-10-07T07:05:56.390Z,101815.78
2022-10-07T07:08:32.145Z,101816.19
2022-10-07T07:11:02.739Z,101808.38
2022-10-07T07:13:31.007Z,101816.97
2022-10-07T07:16:01.946Z,101812.16
2022-10-07T07:18:33.978Z,101803.41
2022-10-07T07:21:02.701Z,101803.22
2022-10-07T07:23:30.709Z,101805.50
2022-10-07T07:25:58.235Z,101806.09
2022-10-07T07:28:27.844Z,101800.94
2022-10-07T07:30:55.806Z,101808.00
2022-10-07T07:33:23.732Z,101804.03
2022-10-07T07:35:51.734Z,101804.97
2022-10-07T07:38:24.768Z,101797.75
2022-10-07T07:40:54.843Z,101807.03
2022-10-07T07:43:22.305Z,101809.72
2022-10-07T07:45:50.747Z,101804.72
2022-10-07T07:48:21.969Z,101804.81
2022-10-07T07:50:50.409Z,101799.53
2022-10-07T07:53:18.104Z,101806.66
2022-10-07T07:55:55.491Z,101806.38
2022-10-07T07:58:24.435Z,101803.13
2022-10-07T08:01:19.296Z,101801.97
2022-10-07T08:03:48.913Z,101798.94
2022-10-07T08:06:17.880Z,101790.88
2022-10-07T08:08:45.383Z,101797.00
2022-10-07T08:11:18.189Z,101792.81
2022-10-07T08:13:47.160Z,101786.78
2022-10-07T08:16:18.968Z,101781.56
2022-10-07T08:18:49.330Z,101777.31
2022-10-07T08:21:21.350Z,101794.06
2022-10-07T08:23:53.448Z,101783.25
2022-10-07T08:26:21.296Z,101786.03
2022-10-07T08:28:49.199Z,101782.91
2022-10-07T08:31:17.970Z,101784.22
2022-10-07T08:33:46.729Z,101778.91
2022-10-07T08:36:15.485Z,101776.16
2022-10-07T08:38:43.227Z,101784.16
2022-10-07T08:41:14.173Z,101782.56
2022-10-07T08:43:46.553Z,101770.34
2022-10-07T08:46:16.072Z,101778.09
2022-10-07T08:48:46.551Z,101774.91
2022-10-07T08:51:41.377Z,101781.56
2022-10-07T08:54:13.565Z,101780.53
2022-10-07T08:56:41.227Z,101775.09
2022-10-07T08:59:25.531Z,101781.94
2022-10-07T09:01:53.052Z,101765.75
2022-10-07T09:04:23.742Z,101776.50
2022-10-07T09:07:03.286Z,101766.41
2022-10-07T09:09:35.377Z,101769.59
2022-10-07T09:12:03.924Z,101760.34
2022-10-07T09:14:32.186Z,101768.25
2022-10-07T09:17:22.906Z,101761.91
2022-10-07T09:19:50.771Z,101766.28
2022-10-07T09:22:21.545Z,101766.75
2022-10-07T09:24:49.502Z,101772.38
2022-10-07T09:27:17.609Z,101770.19
2022-10-07T09:29:45.432Z,101770.00
2022-10-07T09:32:14.163Z,101769.06
2022-10-07T09:34:41.759Z,101775.88
2022-10-07T09:37:15.457Z,101773.50
2022-10-07T09:39:44.078Z,101770.47
2022-10-07T09:42:18.659Z,101767.81
2022-10-07T09:44:51.434Z,101766.31
2022-10-07T09:47:23.124Z,101765.00
2022-10-07T09:50:00.601Z,101763.97
2022-10-07T09:52:29.255Z,101758.53
2022-10-07T09:55:19.481Z,101761.84
2022-10-07T09:57:58.744Z,101765.69
2022-10-07T10:00:26.596Z,101765.84
2022-10-07T10:03:07.711Z,101758.22
2022-10-07T10:05:36.269Z,101754.16
2022-10-07T10:08:12.760Z,101754.75
2022-10-07T10:10:52.656Z,101747.47
2022-10-07T10:13:36.467Z,101746.28
2022-10-07T10:16:04.863Z,101741.84
2022-10-07T10:18:42.149Z,101734.97
2022-10-07T10:21:16.027Z,101733.72
2022-10-07T10:23:47.703Z,101734.09
2022-10-07T10:26:32.706Z,101734.53
2022-10-07T10:29:20.305Z,101729.25
2022-10-07T10:32:07.472Z,101735.13
2022-10-07T10:34:35.682Z,101728.38
2022-10-07T10:37:20.936Z,101718.97
2022-10-07T10:39:51.704Z,101731.50
2022-10-07T10:42:22.901Z,101730.56
2022-10-07T10:44:53.650Z,101729.09
2022-10-07T10:47:30.417Z,101725.78
2022-10-07T10:50:19.477Z,101728.81
2022-10-07T10:52:53.158Z,101719.22
2022-10-07T10:55:33.530Z,101721.41
2022-10-07T10:58:10.656Z,101719.22
2022-10-07T11:00:45.263Z,101714.44
2022-10-07T11:03:13.296Z,101718.13
2022-10-07T11:05:42.647Z,101713.38
2022-10-07T11:08:25.295Z,101711.38
2022-10-07T11:10:56.131Z,101711.50
2022-10-07T11:13:27.509Z,101715.44
2022-10-07T11:16:00.625Z,101710.41
2022-10-07T11:18:36.167Z,101715.66
2022-10-07T11:21:04.338Z,101712.53
2022-10-07T11:23:40.995Z,101713.38
2022-10-07T11:26:17.832Z,101718.09
2022-10-07T11:28:45.932Z,101721.88
2022-10-07T11:31:17.577Z,101716.81
2022-10-07T11:34:05.026Z,101712.59
2022-10-07T11:36:41.180Z,101720.97
2022-10-07T11:39:08.721Z,101712.00
2022-10-07T11:41:42.508Z,101709.19
2022-10-07T11:44:14.210Z,101718.22
2022-10-07T11:46:44.942Z,101703.41
2022-10-07T11:49:12.501Z,101711.06
2022-10-07T11:51:56.672Z,101709.69
2022-10-07T11:54:24.781Z,101707.06
2022-10-07T11:56:52.904Z,101705.59
2022-10-07T11:59:34.038Z,101713.13
2022-10-07T12:02:01.864Z,101704.66
2022-10-07T12:04:29.420Z,101710.06
2022-10-07T12:07:15.858Z,101703.97
2022-10-07T12:10:06.226Z,101708.00
2022-10-07T12:12:43.243Z,101708.56
2022-10-07T12:15:29.739Z,101702.09
2022-10-07T12:18:06.595Z,101696.59
2022-10-07T12:20:45.003Z,101703.97
2022-10-07T12:23:18.649Z,101705.75
2022-10-07T12:25:48.828Z,101701.38
2022-10-07T12:28:36.844Z,101697.13
2022-10-07T12:31:05.278Z,101702.38
2022-10-07T12:33:45.467Z,101702.50
2022-10-07T12:36:18.688Z,101696.84
2022-10-07T12:38:46.532Z,101697.16
2022-10-07T12:41:23.261Z,101699.38
2022-10-07T12:44:06.674Z,101687.81
2022-10-07T12:46:37.631Z,101700.53
2022-10-07T12:49:07.125Z,101701.94
2022-10-07T12:51:41.543Z,101705.63
2022-10-07T12:54:15.311Z,101696.56
2022-10-07T12:56:43.577Z,101717.22
2022-10-07T12:59:49.766Z,101706.56
2022-10-07T13:02:36.390Z,101705.97
2022-10-07T13:05:22.540Z,101708.66
2022-10-07T13:07:50.204Z,101701.75
2022-10-07T13:10:30.123Z,101697.44
2022-10-07T13:13:22.093Z,101691.25
2022-10-07T13:15:50.608Z,101694.56
2022-10-07T13:18:19.771Z,101697.25
2022-10-07T13:20:47.758Z,101695.03
2022-10-07T13:23:16.479Z,101694.56
2022-10-07T13:25:45.715Z,101697.69
2022-10-07T13:28:17.195Z,101696.25
2022-10-07T13:30:47.040Z,101688.94
2022-10-07T13:33:31.465Z,101698.50
2022-10-07T13:36:06.762Z,101695.00
2022-10-07T13:38:36.137Z,101684.81
2022-10-07T13:41:05.004Z,101693.34
2022-10-07T13:43:32.610Z,101682.25
2022-10-07T13:46:01.193Z,101688.81
2022-10-07T13:48:31.364Z,101686.00
2022-10-07T13:51:02.618Z,101681.78
2022-10-07T13:53:36.995Z,101688.72
2022-10-07T13:56:05.286Z,101682.72
2022-10-07T13:58:33.367Z,101674.09
2022-10-07T14:01:02.205Z,101674.75
2022-10-07T14:03:29.803Z,101681.78
2022-10-07T14:05:57.281Z,101681.25
2022-10-07T14:08:27.153Z,101679.09
2022-10-07T14:11:08.591Z,101681.50
2022-10-07T14:13:38.992Z,101676.44
2022-10-07T14:16:08.204Z,101677.28
2022-10-07T14:18:35.681Z,101671.00
2022-10-07T14:21:13.046Z,101680.75
2022-10-07T14:23:40.445Z,101682.31
2022-10-07T14:26:11.988Z,101687.19
2022-10-07T14:28:39.667Z,101693.09
2022-10-07T14:31:25.950Z,101687.16
2022-10-07T14:34:17.902Z,101691.88
2022-10-07T14:37:01.805Z,101694.00
2022-10-07T14:39:32.601Z,101694.03
2022-10-07T14:42:00.287Z,101695.25
2022-10-07T14:44:27.667Z,101699.78
2022-10-07T14:47:05.066Z,101697.78
2022-10-07T14:49:32.849Z,101695.78
2022-10-07T14:52:00.315Z,101703.16
2022-10-07T14:54:28.207Z,101704.56
2022-10-07T14:56:55.579Z,101698.16
2022-10-07T14:59:23.608Z,101700.13
2022-10-07T15:01:51.808Z,101701.81
2022-10-07T15:04:22.938Z,101699.56
2022-10-07T15:06:51.137Z,101709.72
2022-10-07T15:09:18.830Z,101703.81
2022-10-07T15:11:46.874Z,101703.22
2022-10-07T15:14:14.610Z,101702.94
2022-10-07T15:16:42.567Z,101701.00
2022-10-07T15:19:12.160Z,101708.59
2022-10-07T15:21:39.953Z,101706.88
2022-10-07T15:24:07.322Z,101706.91
2022-10-07T15:26:35.658Z,101711.09
2022-10-07T15:29:03.054Z,101711.38
2022-10-07T15:31:30.870Z,101720.66
2022-10-07T15:33:58.806Z,101714.19
2022-10-07T15:36:27.501Z,101711.94
2022-10-07T15:38:55.261Z,101718.06
2022-10-07T15:41:33.248Z,101712.75
2022-10-07T15:44:02.046Z,101714.16
2022-10-07T15:46:30.083Z,101719.78
2022-10-07T15:48:57.859Z,101713.34
2022-10-07T15:51:25.876Z,101725.41
2022-10-07T15:53:53.901Z,101723.94
2022-10-07T15:56:21.728Z,101725.03
2022-10-07T15:58:53.688Z,101724.81
2022-10-07T16:01:21.106Z,101733.47
2022-10-07T16:03:48.961Z,101727.59
2022-10-07T16:06:21.378Z,101732.38
2022-10-07T16:08:50.207Z,101732.03
2022-10-07T16:11:19.769Z,101731.44
2022-10-07T16:13:48.174Z,101730.53
2022-10-07T16:16:17.140Z,101735.59
2022-10-07T16:18:45.256Z,101734.13
2022-10-07T16:21:21.703Z,101736.66
2022-10-07T16:23:50.125Z,101741.31
2022-10-07T16:26:21.606Z,101732.84
2022-10-07T16:29:08.934Z,101743.88
2022-10-07T16:31:37.250Z,101740.38
2022-10-07T16:34:04.731Z,101740.84
2022-10-07T16:36:32.125Z,101742.53
2022-10-07T16:39:05.756Z,101740.25
2022-10-07T16:41:33.392Z,101739.81
2022-10-07T16:44:01.744Z,101738.69
2022-10-07T16:46:30.254Z,101738.75
2022-10-07T16:48:57.978Z,101743.81
2022-10-07T16:51:35.608Z,101747.66
2022-10-07T16:54:04.736Z,101745.84
2022-10-07T16:56:35.596Z,101747.47
2022-10-07T16:59:04.375Z,101751.06
2022-10-07T17:01:32.068Z,101751.56
2022-10-07T17:04:00.343Z,101751.72
2022-10-07T17:06:28.566Z,101752.56
2022-10-07T17:08:56.966Z,101747.75
2022-10-07T17:11:30.766Z,101749.94
2022-10-07T17:13:59.121Z,101753.69
2022-10-07T17:16:26.960Z,101749.66
2022-10-07T17:18:54.366Z,101758.78
2022-10-07T17:21:21.809Z,101751.53
2022-10-07T17:23:50.645Z,101762.25
2022-10-07T17:26:18.933Z,101761.59
2022-10-07T17:28:49.760Z,101758.53
2022-10-07T17:31:18.600Z,101752.94
2022-10-07T17:33:46.040Z,101763.28
2022-10-07T17:36:14.460Z,101759.00
2022-10-07T17:38:43.041Z,101768.13
2022-10-07T17:41:17.663Z,101758.63
2022-10-07T17:43:45.336Z,101770.06
2022-10-07T17:46:14.136Z,101758.81
2022-10-07T17:48:43.055Z,101762.78
2022-10-07T17:51:10.649Z,101762.84
2022-10-07T17:53:39.768Z,101767.19
2022-10-07T17:56:09.927Z,101759.38
2022-10-07T17:58:38.144Z,101746.16
2022-10-07T18:01:09.736Z,101750.66
2022-10-07T18:03:38.399Z,101753.78
2022-10-07T18:06:10.252Z,101759.28
2022-10-07T18:08:40.267Z,101755.63
2022-10-07T18:11:07.633Z,101761.25
2022-10-07T18:13:54.131Z,101765.72
2022-10-07T18:16:22.079Z,101753.22
2022-10-07T18:18:53.314Z,101757.22
2022-10-07T18:21:22.365Z,101758.25
2022-10-07T18:23:50.822Z,101758.53
2022-10-07T18:26:18.980Z,101754.94
2022-10-07T18:28:46.902Z,101747.56
2022-10-07T18:31:15.197Z,101757.84
2022-10-07T18:33:42.694Z,101758.41
2022-10-07T18:36:10.840Z,101763.63
2022-10-07T18:38:39.183Z,101759.38
2022-10-07T18:41:07.371Z,101758.81
2022-10-07T18:43:35.657Z,101768.13
2022-10-07T18:46:07.166Z,101770.63
2022-10-07T18:48:35.154Z,101767.09
2022-10-07T18:51:02.868Z,101765.41
2022-10-07T18:53:31.645Z,101774.66
2022-10-07T18:56:05.772Z,101771.75
2022-10-07T18:58:40.137Z,101774.81
2022-10-07T19:01:10.775Z,101774.56
2022-10-07T19:03:38.624Z,101773.50
2022-10-07T19:06:06.616Z,101771.44
2022-10-07T19:08:35.610Z,101773.50
2022-10-07T19:11:07.004Z,101773.25
2022-10-07T19:13:53.555Z,101785.13
2022-10-07T19:16:35.208Z,101786.66
2022-10-07T19:19:04.293Z,101783.41
2022-10-07T19:21:32.326Z,101786.03
2022-10-07T19:24:01.844Z,101786.19
2022-10-07T19:26:30.227Z,101773.66
2022-10-07T19:28:59.460Z,101778.69
2022-10-07T19:31:30.695Z,101781.38
2022-10-07T19:34:05.044Z,101768.41
2022-10-07T19:36:34.622Z,101773.53
2022-10-07T19:39:02.709Z,101773.75
2022-10-07T19:41:30.777Z,101771.94
2022-10-07T19:43:58.510Z,101772.66
2022-10-07T19:46:26.606Z,101778.59
2022-10-07T19:48:58.461Z,101775.31
2022-10-07T19:51:26.953Z,101777.16
2022-10-07T19:53:57.389Z,101782.34
2022-10-07T19:56:25.740Z,101781.00
2022-10-07T19:58:53.989Z,101784.63
2022-10-07T20:01:25.306Z,101783.56
2022-10-07T20:03:57.141Z,101786.97
2022-10-07T20:06:25.385Z,101774.00
2022-10-07T20:08:53.905Z,101789.38
2022-10-07T20:11:21.356Z,101784.53
2022-10-07T20:13:48.666Z,101787.94
2022-10-07T20:16:20.283Z,101797.88
2022-10-07T20:18:48.766Z,101797.50
2022-10-07T20:21:17.749Z,101796.78
2022-10-07T20:23:45.776Z,101790.38
2022-10-07T20:26:16.368Z,101798.00
2022-10-07T20:28:44.053Z,101791.81
2022-10-07T20:31:12.179Z,101801.66
2022-10-07T20:33:43.765Z,101794.94
2022-10-07T20:36:11.691Z,101795.69
2022-10-07T20:38:57.822Z,101799.81
2022-10-07T20:41:44.148Z,101801.88
2022-10-07T20:44:11.852Z,101798.00
2022-10-07T20:46:40.168Z,101792.91
2022-10-07T20:49:12.586Z,101792.53
2022-10-07T20:51:40.269Z,101792.66
2022-10-07T20:54:08.213Z,101796.91
2022-10-07T20:56:35.536Z,101791.41
2022-10-07T20:59:03.444Z,101795.41
2022-10-07T21:01:31.094Z,101798.19
2022-10-07T21:03:59.094Z,101804.78
2022-10-07T21:06:26.428Z,101800.91
2022-10-07T21:08:54.320Z,101800.56
2022-10-07T21:11:21.703Z,101801.41
2022-10-07T21:13:50.688Z,101800.91
2022-10-07T21:16:21.068Z,101800.16
2022-10-07T21:18:48.673Z,101811.53
2022-10-07T21:21:15.966Z,101806.19
2022-10-07T21:23:44.527Z,101807.41
2022-10-07T21:26:12.223Z,101807.91
2022-10-07T21:28:40.340Z,101813.25
2022-10-07T21:31:08.764Z,101802.38
2022-10-07T21:33:37.595Z,101810.25
2022-10-07T21:36:06.172Z,101809.75
2022-10-07T21:38:34.389Z,101806.84
2022-10-07T21:41:12.054Z,101809.41
2022-10-07T21:43:40.187Z,101806.13
2022-10-07T21:46:08.139Z,101800.06
2022-10-07T21:48:36.553Z,101800.16
2022-10-07T21:51:09.360Z,101799.94
2022-10-07T21:53:37.129Z,101799.44
2022-10-07T21:56:05.537Z,101798.34
2022-10-07T21:58:33.520Z,101809.75
2022-10-07T22:01:04.976Z,101804.66
2022-10-07T22:03:32.892Z,101806.13
2022-10-07T22:06:06.522Z,101807.34
2022-10-07T22:08:37.281Z,101810.13
2022-10-07T22:11:04.723Z,101811.69
2022-10-07T22:13:33.559Z,101814.59
2022-10-07T22:16:05.034Z,101814.59
2022-10-07T22:18:35.964Z,101817.81
2022-10-07T22:21:11.010Z,101814.09
2022-10-07T22:23:38.739Z,101816.25
2022-10-07T22:26:06.546Z,101806.28
2022-10-07T22:28:37.663Z,101801.81
2022-10-07T22:31:05.723Z,101802.91
2022-10-07T22:33:33.644Z,101801.94
2022-10-07T22:36:04.490Z,101808.91
2022-10-07T22:38:32.528Z,101804.91
2022-10-07T22:41:03.605Z,101800.06
2022-10-07T22:43:31.460Z,101802.56
2022-10-07T22:46:01.579Z,101800.50
2022-10-07T22:48:31.573Z,101804.88
2022-10-07T22:51:08.635Z,101802.78
2022-10-07T22:53:46.133Z,101801.78
2022-10-07T22:56:15.354Z,101802.44
2022-10-07T22:58:43.523Z,101802.81
2022-10-07T23:01:11.865Z,101803.56
2022-10-07T23:03:40.186Z,101801.72
2022-10-07T23:06:08.046Z,101801.72
2022-10-07T23:08:35.432Z,101797.78
2022-10-07T23:11:03.140Z,101796.53
2022-10-07T23:13:32.807Z,101794.38
2022-10-07T23:16:09.136Z,101797.66
2022-10-07T23:18:36.707Z,101793.13
2022-10-07T23:21:04.161Z,101800.44
2022-10-07T23:23:35.752Z,101800.22
2022-10-07T23:26:08.230Z,101787.13
2022-10-07T23:28:35.738Z,101798.97
2022-10-07T23:31:05.027Z,101797.22
2022-10-07T23:33:33.190Z,101784.03
2022-10-07T23:36:01.236Z,101800.44
2022-10-07T23:38:28.744Z,101789.88
2022-10-07T23:40:56.186Z,101785.16
2022-10-07T23:43:23.579Z,101779.28
2022-10-07T23:45:51.715Z,101779.13
2022-10-07T23:48:19.320Z,101776.66
2022-10-07T23:50:50.069Z,101777.28
2022-10-07T23:53:17.916Z,101772.94
2022-10-07T23:55:46.655Z,101775.41
2022-10-07T23:58:18.258Z,101773.84
